Terminal Aerodrome Forecast
Issued by NWS

Home | Current Version | Previous Version | Graphics & Text | Print | Product List | Glossary On
Versions: 1 2 3 4 5 6 7 8 9 10 11 12 13 14 15 16 17 18 19 20 21 22 23 24 25 26
000
FTUS43 KABR 180500
TAFPIR
TAF
KPIR 180520Z 1806/1906 VRB06KT P6SM VCSH BKN080
     FM181800 06005KT P6SM VCSH OVC040
     FM182100 02008KT P6SM -SHRA OVC015
     FM190000 36009KT 6SM -RA OVC007=

USA.gov is the U.S. government's official web portal to all federal, state and local government web resources and services.